createdAt,value
2018-01-07T00:01:26.487Z,7.00
2018-01-07T00:03:53.972Z,7.10
2018-01-07T00:06:21.540Z,7.20
2018-01-07T00:08:48.615Z,7.10
2018-01-07T00:11:15.988Z,7.20
2018-01-07T00:13:44.021Z,7.20
2018-01-07T00:16:11.516Z,7.20
2018-01-07T00:18:39.902Z,6.90
2018-01-07T00:21:07.711Z,7.10
2018-01-07T00:23:36.468Z,7.10
2018-01-07T00:26:04.071Z,6.90
2018-01-07T00:28:31.877Z,6.90
2018-01-07T00:30:58.935Z,7.00
2018-01-07T00:33:26.148Z,7.10
2018-01-07T00:35:53.142Z,6.90
2018-01-07T00:38:20.307Z,7.00
2018-01-07T00:40:48.040Z,6.90
2018-01-07T00:43:16.076Z,7.00
2018-01-07T00:45:43.361Z,6.90
2018-01-07T00:48:11.068Z,7.00
2018-01-07T00:50:38.213Z,6.90
2018-01-07T00:53:05.203Z,6.80
2018-01-07T00:55:32.440Z,6.70
2018-01-07T00:58:00.196Z,6.80
2018-01-07T01:00:27.077Z,6.80
2018-01-07T01:02:54.024Z,6.90
2018-01-07T01:05:20.924Z,6.80
2018-01-07T01:07:49.766Z,6.80
2018-01-07T01:10:17.503Z,6.80
2018-01-07T01:12:44.404Z,6.80
2018-01-07T01:15:11.352Z,6.60
2018-01-07T01:17:38.229Z,6.60
2018-01-07T01:20:05.176Z,6.60
2018-01-07T01:22:32.087Z,6.70
2018-01-07T01:24:58.973Z,6.60
2018-01-07T01:27:25.933Z,6.70
2018-01-07T01:29:52.813Z,6.70
2018-01-07T01:32:20.533Z,6.70
2018-01-07T01:34:47.446Z,6.60
2018-01-07T01:37:14.380Z,6.80
2018-01-07T01:39:41.320Z,6.70
2018-01-07T01:42:08.947Z,6.60
2018-01-07T01:44:35.865Z,6.60
2018-01-07T01:47:02.877Z,6.60
2018-01-07T01:49:29.856Z,6.70
2018-01-07T01:51:56.792Z,6.70
2018-01-07T01:54:23.663Z,6.70
2018-01-07T01:56:50.588Z,6.70
2018-01-07T01:59:17.483Z,6.60
2018-01-07T02:01:44.429Z,6.50
2018-01-07T02:04:11.313Z,6.50
2018-01-07T02:06:38.274Z,6.60
2018-01-07T02:09:05.260Z,6.60
2018-01-07T02:11:32.263Z,6.40
2018-01-07T02:13:59.291Z,6.60
2018-01-07T02:16:26.143Z,6.50
2018-01-07T02:18:52.983Z,6.70
2018-01-07T02:21:19.930Z,6.50
2018-01-07T02:23:46.814Z,6.70
2018-01-07T02:26:13.755Z,6.70
2018-01-07T02:28:40.613Z,6.60
2018-01-07T02:31:07.481Z,6.60
2018-01-07T02:33:34.431Z,6.50
2018-01-07T02:36:02.064Z,6.50
2018-01-07T02:38:29.077Z,6.40
2018-01-07T02:40:55.960Z,6.60
2018-01-07T02:43:22.910Z,6.50
2018-01-07T02:45:49.806Z,6.40
2018-01-07T02:48:16.700Z,6.40
2018-01-07T02:50:43.632Z,6.40
2018-01-07T02:53:10.477Z,6.40
2018-01-07T02:55:37.421Z,6.40
2018-01-07T02:58:04.380Z,6.50
2018-01-07T03:00:31.348Z,6.50
2018-01-07T03:02:58.971Z,6.60
2018-01-07T03:05:25.839Z,6.60
2018-01-07T03:07:52.819Z,6.50
2018-01-07T03:10:19.708Z,6.40
2018-01-07T03:12:46.928Z,6.50
2018-01-07T03:15:13.913Z,6.50
2018-01-07T03:17:40.848Z,6.40
2018-01-07T03:20:08.567Z,6.40
2018-01-07T03:22:36.524Z,6.40
2018-01-07T03:25:03.988Z,6.40
2018-01-07T03:27:32.388Z,6.20
2018-01-07T03:29:59.996Z,6.20
2018-01-07T03:32:27.446Z,6.10
2018-01-07T03:34:54.935Z,6.20
2018-01-07T03:37:22.476Z,6.30
2018-01-07T03:39:49.774Z,6.30
2018-01-07T03:42:17.027Z,6.30
2018-01-07T03:44:44.874Z,6.00
2018-01-07T03:47:12.247Z,6.00
2018-01-07T03:49:41.096Z,6.10
2018-01-07T03:52:08.548Z,6.10
2018-01-07T03:54:35.909Z,6.20
2018-01-07T03:57:03.463Z,6.20
2018-01-07T03:59:31.339Z,6.10
2018-01-07T04:01:58.810Z,6.10
2018-01-07T04:04:26.865Z,6.20
2018-01-07T04:06:54.376Z,6.00
2018-01-07T04:09:23.311Z,6.10
2018-01-07T04:11:50.949Z,6.10
2018-01-07T04:14:19.087Z,6.10
2018-01-07T04:16:46.425Z,6.20
2018-01-07T04:19:13.452Z,5.90
2018-01-07T04:21:41.013Z,6.00
2018-01-07T04:24:08.111Z,6.00
2018-01-07T04:26:36.368Z,5.90
2018-01-07T04:29:03.808Z,5.90
2018-01-07T04:31:31.672Z,5.90
2018-01-07T04:33:59.743Z,6.00
2018-01-07T04:36:26.848Z,5.90
2018-01-07T04:38:53.985Z,5.90
2018-01-07T04:41:21.018Z,5.80
2018-01-07T04:43:48.447Z,5.90
2018-01-07T04:46:15.859Z,5.80
2018-01-07T04:48:44.115Z,5.80
2018-01-07T04:51:11.319Z,5.80
2018-01-07T04:53:39.133Z,5.80
2018-01-07T04:56:06.022Z,5.80
2018-01-07T04:58:33.948Z,5.80
2018-01-07T05:01:01.888Z,5.80
2018-01-07T05:03:30.064Z,5.80
2018-01-07T05:05:57.704Z,5.70
2018-01-07T05:08:25.491Z,5.80
2018-01-07T05:10:53.051Z,5.70
2018-01-07T05:13:20.450Z,5.60
2018-01-07T05:15:48.677Z,5.70
2018-01-07T05:18:16.355Z,5.70
2018-01-07T05:20:43.455Z,5.60
2018-01-07T05:23:12.910Z,5.70
2018-01-07T05:25:40.928Z,5.70
2018-01-07T05:28:21.039Z,5.70
2018-01-07T05:30:50.229Z,5.70
2018-01-07T05:33:17.884Z,5.60
2018-01-07T05:35:45.224Z,5.50
2018-01-07T05:38:12.203Z,5.50
2018-01-07T05:40:39.212Z,5.50
2018-01-07T05:43:07.632Z,5.60
2018-01-07T05:45:34.847Z,5.60
2018-01-07T05:48:01.956Z,5.80
2018-01-07T05:50:29.243Z,5.70
2018-01-07T05:52:56.642Z,5.70
2018-01-07T05:55:23.655Z,5.70
2018-01-07T05:57:51.147Z,5.50
2018-01-07T06:00:18.088Z,5.60
2018-01-07T06:02:45.350Z,5.60
2018-01-07T06:05:12.267Z,5.60
2018-01-07T06:07:39.271Z,5.50
2018-01-07T06:10:07.675Z,5.60
2018-01-07T06:12:35.064Z,5.70
2018-01-07T06:15:03.161Z,5.80
2018-01-07T06:17:30.866Z,5.70
2018-01-07T06:19:59.188Z,5.70
2018-01-07T06:22:26.232Z,5.80
2018-01-07T06:24:54.370Z,5.60
2018-01-07T06:27:21.766Z,5.70
2018-01-07T06:29:49.332Z,5.80
2018-01-07T06:32:16.516Z,5.80
2018-01-07T06:34:45.460Z,5.70
2018-01-07T06:37:12.836Z,5.70
2018-01-07T06:39:40.063Z,5.80
2018-01-07T06:42:07.156Z,5.90
2018-01-07T06:44:34.791Z,6.00
2018-01-07T06:47:02.092Z,5.90
2018-01-07T06:49:30.358Z,5.90
2018-01-07T06:51:57.459Z,5.90
2018-01-07T06:54:24.620Z,5.70
2018-01-07T06:56:51.935Z,5.80
2018-01-07T06:59:19.028Z,5.60
2018-01-07T07:01:51.279Z,5.70
2018-01-07T07:04:22.447Z,5.70
2018-01-07T07:06:50.873Z,5.70
2018-01-07T07:09:19.056Z,5.70
2018-01-07T07:11:48.299Z,5.80
2018-01-07T07:14:18.586Z,5.80
2018-01-07T07:16:50.640Z,5.70
2018-01-07T07:19:22.512Z,5.60
2018-01-07T07:21:55.277Z,5.70
2018-01-07T07:24:27.266Z,5.80
2018-01-07T07:26:56.079Z,5.60
2018-01-07T07:29:24.398Z,5.40
2018-01-07T07:31:52.049Z,5.40
2018-01-07T07:34:22.600Z,5.70
2018-01-07T07:36:52.613Z,5.80
2018-01-07T07:39:22.311Z,5.70
2018-01-07T07:41:49.440Z,5.70
2018-01-07T07:44:21.592Z,5.80
2018-01-07T07:46:48.803Z,5.60
2018-01-07T07:49:18.065Z,5.70
2018-01-07T07:51:46.210Z,5.70
2018-01-07T07:54:16.267Z,5.70
2018-01-07T07:56:52.151Z,5.50
2018-01-07T07:59:24.920Z,5.50
2018-01-07T08:01:52.222Z,5.70
2018-01-07T08:04:19.222Z,5.80
2018-01-07T08:06:48.341Z,5.70
2018-01-07T08:09:17.195Z,5.80
2018-01-07T08:11:46.103Z,5.80
2018-01-07T08:14:14.903Z,5.60
2018-01-07T08:16:42.746Z,5.70
2018-01-07T08:19:17.060Z,5.70
2018-01-07T08:21:44.627Z,5.90
2018-01-07T08:24:13.700Z,5.80
2018-01-07T08:26:41.962Z,5.80
2018-01-07T08:29:08.878Z,5.80
2018-01-07T08:31:37.222Z,5.90
2018-01-07T08:34:14.466Z,5.70
2018-01-07T08:36:48.088Z,5.90
2018-01-07T08:39:17.918Z,5.90
2018-01-07T08:41:44.967Z,6.00
2018-01-07T08:44:12.050Z,5.90
2018-01-07T08:46:39.906Z,6.00
2018-01-07T08:49:08.569Z,6.00
2018-01-07T08:51:47.298Z,6.00
2018-01-07T08:54:18.300Z,6.10
2018-01-07T08:56:50.863Z,6.10
2018-01-07T08:59:18.167Z,6.20
2018-01-07T09:01:53.521Z,6.20
2018-01-07T09:04:22.528Z,5.90
2018-01-07T09:06:51.956Z,5.90
2018-01-07T09:09:20.770Z,5.90
2018-01-07T09:11:49.252Z,5.80
2018-01-07T09:14:18.956Z,6.00
2018-01-07T09:16:47.849Z,6.10
2018-01-07T09:19:16.450Z,6.00
2018-01-07T09:21:44.716Z,5.80
2018-01-07T09:24:14.700Z,6.00
2018-01-07T09:26:42.870Z,6.20
2018-01-07T09:29:12.488Z,6.10
2018-01-07T09:31:47.449Z,6.00
2018-01-07T09:34:24.194Z,6.10
2018-01-07T09:36:54.880Z,6.40
2018-01-07T09:39:24.129Z,6.00
2018-01-07T09:41:52.285Z,6.10
2018-01-07T09:44:28.733Z,6.00
2018-01-07T09:46:58.507Z,5.90
2018-01-07T09:49:27.958Z,6.10
2018-01-07T09:52:01.666Z,6.10
2018-01-07T09:54:29.931Z,6.20
2018-01-07T09:56:57.753Z,6.00
2018-01-07T09:59:25.602Z,6.00
2018-01-07T10:01:53.856Z,6.00
2018-01-07T10:04:22.268Z,6.00
2018-01-07T10:06:50.724Z,6.10
2018-01-07T10:09:17.943Z,6.00
2018-01-07T10:11:45.068Z,6.20
2018-01-07T10:14:12.130Z,5.90
2018-01-07T10:16:39.523Z,5.90
2018-01-07T10:19:07.134Z,5.90
2018-01-07T10:21:35.200Z,6.10
2018-01-07T10:24:02.443Z,6.10
2018-01-07T10:26:29.973Z,6.20
2018-01-07T10:29:02.379Z,6.20
2018-01-07T10:31:31.081Z,6.00
2018-01-07T10:34:01.994Z,6.00
2018-01-07T10:36:35.552Z,5.90
2018-01-07T10:39:05.320Z,6.00
2018-01-07T10:41:37.032Z,5.90
2018-01-07T10:44:08.675Z,5.80
2018-01-07T10:46:36.171Z,5.70
2018-01-07T10:49:04.368Z,5.90
2018-01-07T10:51:36.243Z,5.70
2018-01-07T10:54:06.114Z,5.90
2018-01-07T10:56:43.036Z,6.10
2018-01-07T10:59:10.334Z,5.90
2018-01-07T11:01:43.643Z,6.10
2018-01-07T11:04:12.849Z,6.10
2018-01-07T11:06:40.073Z,5.90
2018-01-07T11:09:07.043Z,5.90
2018-01-07T11:11:35.967Z,5.90
2018-01-07T11:14:07.535Z,5.90
2018-01-07T11:16:44.083Z,5.80
2018-01-07T11:19:15.574Z,6.00
2018-01-07T11:21:47.301Z,5.70
2018-01-07T11:24:25.726Z,6.10
2018-01-07T11:26:54.496Z,6.00
2018-01-07T11:29:23.059Z,6.00
2018-01-07T11:31:50.454Z,5.80
2018-01-07T11:34:18.244Z,6.10
2018-01-07T11:36:45.666Z,6.00
2018-01-07T11:39:13.208Z,6.00
2018-01-07T11:41:40.784Z,5.90
2018-01-07T11:44:09.137Z,5.90
2018-01-07T11:46:37.013Z,6.20
2018-01-07T11:49:04.212Z,6.10
2018-01-07T11:51:31.640Z,6.00
2018-01-07T11:53:58.712Z,5.80
2018-01-07T11:56:27.214Z,6.10
2018-01-07T11:58:55.565Z,6.10
2018-01-07T12:01:23.504Z,5.90
2018-01-07T12:03:51.159Z,5.70
2018-01-07T12:06:22.169Z,5.90
2018-01-07T12:08:52.154Z,6.00
2018-01-07T12:11:22.555Z,6.00
2018-01-07T12:13:50.188Z,6.20
2018-01-07T12:16:17.625Z,5.90
2018-01-07T12:18:47.223Z,6.00
2018-01-07T12:21:14.973Z,6.10
2018-01-07T12:23:42.785Z,6.10
2018-01-07T12:26:09.804Z,6.20
2018-01-07T12:28:38.405Z,5.70
2018-01-07T12:31:05.848Z,5.70
2018-01-07T12:33:33.952Z,6.10
2018-01-07T12:36:00.983Z,6.10
2018-01-07T12:38:28.194Z,6.00
2018-01-07T12:40:55.843Z,6.00
2018-01-07T12:43:22.708Z,6.30
2018-01-07T12:45:49.584Z,6.30
2018-01-07T12:48:16.540Z,6.10
2018-01-07T12:50:43.476Z,6.40
2018-01-07T12:53:10.372Z,6.30
2018-01-07T12:55:37.259Z,6.50
2018-01-07T12:58:04.952Z,6.40
2018-01-07T13:00:31.880Z,6.30
2018-01-07T13:02:58.735Z,6.50
2018-01-07T13:05:25.680Z,6.70
2018-01-07T13:07:52.560Z,6.80
2018-01-07T13:10:19.443Z,6.80
2018-01-07T13:12:47.100Z,6.90
2018-01-07T13:15:13.960Z,6.90
2018-01-07T13:17:40.887Z,6.90
2018-01-07T13:20:07.887Z,6.80
2018-01-07T13:22:34.816Z,6.90
2018-01-07T13:25:02.115Z,6.80
2018-01-07T13:27:29.076Z,6.70
2018-01-07T13:29:55.923Z,6.60
2018-01-07T13:32:22.835Z,6.40
2018-01-07T13:34:49.772Z,6.40
2018-01-07T13:37:16.646Z,6.50
2018-01-07T13:39:43.568Z,6.50
2018-01-07T13:42:10.447Z,6.60
2018-01-07T13:44:37.422Z,6.40
2018-01-07T13:47:04.294Z,6.40
2018-01-07T13:49:31.171Z,6.10
2018-01-07T13:51:58.149Z,5.90
2018-01-07T13:54:25.736Z,6.30
2018-01-07T13:56:52.596Z,6.30
2018-01-07T13:59:19.531Z,6.30
2018-01-07T14:01:46.405Z,6.10
2018-01-07T14:04:13.343Z,6.00
2018-01-07T14:06:40.230Z,6.10
2018-01-07T14:09:07.916Z,6.30
2018-01-07T14:11:34.775Z,6.30
2018-01-07T14:14:01.649Z,6.20
2018-01-07T14:16:28.596Z,6.20
2018-01-07T14:18:55.473Z,6.00
2018-01-07T14:21:23.205Z,6.20
2018-01-07T14:23:50.080Z,6.20
2018-01-07T14:26:17.769Z,6.40
2018-01-07T14:28:44.633Z,6.40
2018-01-07T14:31:11.562Z,6.30
2018-01-07T14:33:38.424Z,6.00
2018-01-07T14:36:05.388Z,6.10
2018-01-07T14:38:32.260Z,6.10
2018-01-07T14:40:59.881Z,6.10
2018-01-07T14:43:26.845Z,6.00
2018-01-07T14:45:53.787Z,6.10
2018-01-07T14:48:20.728Z,5.90
2018-01-07T14:50:47.656Z,6.10
2018-01-07T14:53:14.636Z,6.00
2018-01-07T14:55:42.184Z,5.90
2018-01-07T14:58:09.311Z,5.90
2018-01-07T15:00:36.827Z,5.80
2018-01-07T15:03:03.788Z,6.00
2018-01-07T15:05:31.922Z,6.10
2018-01-07T15:07:59.203Z,6.10
2018-01-07T15:10:30.076Z,5.70
2018-01-07T15:13:05.593Z,5.70
2018-01-07T15:15:35.850Z,5.80
2018-01-07T15:18:19.052Z,5.90
2018-01-07T15:20:57.416Z,5.90
2018-01-07T15:23:25.502Z,5.70
2018-01-07T15:25:55.237Z,5.60
2018-01-07T15:28:23.181Z,5.50
2018-01-07T15:30:50.108Z,5.50
2018-01-07T15:33:17.210Z,5.30
2018-01-07T15:35:45.442Z,5.40
2018-01-07T15:38:12.817Z,5.40
2018-01-07T15:40:40.128Z,5.40
2018-01-07T15:43:07.015Z,5.40
2018-01-07T15:45:33.991Z,5.40
2018-01-07T15:48:00.957Z,5.60
2018-01-07T15:50:27.840Z,5.50
2018-01-07T15:52:54.777Z,5.50
2018-01-07T15:55:21.641Z,5.30
2018-01-07T15:57:48.577Z,5.30
2018-01-07T16:00:15.453Z,5.40
2018-01-07T16:02:42.446Z,5.50
2018-01-07T16:05:09.414Z,5.40
2018-01-07T16:07:36.313Z,5.50
2018-01-07T16:10:03.440Z,5.40
2018-01-07T16:12:30.328Z,5.30
2018-01-07T16:14:57.292Z,5.40
2018-01-07T16:17:24.192Z,5.40
2018-01-07T16:19:51.873Z,5.50
2018-01-07T16:22:18.814Z,5.50
2018-01-07T16:24:45.749Z,5.40
2018-01-07T16:27:13.452Z,5.60
2018-01-07T16:29:40.312Z,5.60
2018-01-07T16:32:07.187Z,5.40
2018-01-07T16:34:34.163Z,5.20
2018-01-07T16:37:01.420Z,5.40
2018-01-07T16:39:29.022Z,5.50
2018-01-07T16:41:56.383Z,5.50
2018-01-07T16:44:23.843Z,5.50
2018-01-07T16:46:51.063Z,5.40
2018-01-07T16:49:18.444Z,5.10
2018-01-07T16:51:45.699Z,5.20
2018-01-07T16:54:13.449Z,5.10
2018-01-07T16:56:40.893Z,5.00
2018-01-07T16:59:08.112Z,5.10
2018-01-07T17:01:36.695Z,5.00
2018-01-07T17:04:13.336Z,5.20
2018-01-07T17:06:52.621Z,5.10
2018-01-07T17:09:34.086Z,5.00
2018-01-07T17:12:18.619Z,5.00
2018-01-07T17:14:58.037Z,5.00
2018-01-07T17:17:38.661Z,5.10
2018-01-07T17:20:20.444Z,5.00
2018-01-07T17:23:01.733Z,5.20
2018-01-07T17:25:43.953Z,5.10
2018-01-07T17:28:25.431Z,5.10
2018-01-07T17:31:04.547Z,5.30
2018-01-07T17:33:52.673Z,5.20
2018-01-07T17:36:39.582Z,5.50
2018-01-07T17:39:21.259Z,5.20
2018-01-07T17:42:03.774Z,5.20
2018-01-07T17:44:46.703Z,5.30
2018-01-07T17:47:30.332Z,5.20
2018-01-07T17:50:08.903Z,5.40
2018-01-07T17:52:50.321Z,5.40
2018-01-07T17:55:33.332Z,5.30
2018-01-07T17:58:17.324Z,5.20
2018-01-07T18:00:59.612Z,5.20
2018-01-07T18:03:44.008Z,5.40
2018-01-07T18:06:22.977Z,5.40
2018-01-07T18:09:05.262Z,5.30
2018-01-07T18:11:49.035Z,4.90
2018-01-07T18:14:28.008Z,5.20
2018-01-07T18:17:09.890Z,5.20
2018-01-07T18:19:48.933Z,4.90
2018-01-07T18:22:18.025Z,5.30
2018-01-07T18:24:45.137Z,5.30
2018-01-07T18:27:12.275Z,5.20
2018-01-07T18:29:40.009Z,5.30
2018-01-07T18:32:08.415Z,5.00
2018-01-07T18:34:42.156Z,5.00
2018-01-07T18:37:10.065Z,5.00
2018-01-07T18:39:37.396Z,4.90
2018-01-07T18:42:04.864Z,4.90
2018-01-07T18:44:34.326Z,4.80
2018-01-07T18:47:02.634Z,4.90
2018-01-07T18:49:37.265Z,4.90
2018-01-07T18:52:11.605Z,4.70
2018-01-07T18:54:40.089Z,4.90
2018-01-07T18:57:07.616Z,4.90
2018-01-07T18:59:34.791Z,5.00
2018-01-07T19:02:01.963Z,4.90
2018-01-07T19:04:29.830Z,5.10
2018-01-07T19:07:12.864Z,4.90
2018-01-07T19:12:39.296Z,5.20
2018-01-07T19:15:23.171Z,5.00
2018-01-07T19:18:05.216Z,4.90
2018-01-07T19:20:50.107Z,5.20
2018-01-07T19:23:32.382Z,4.90
2018-01-07T19:26:16.498Z,5.00
2018-01-07T19:29:00.497Z,4.90
2018-01-07T19:31:41.185Z,4.90
2018-01-07T19:34:24.234Z,4.90
2018-01-07T19:37:05.752Z,5.00
2018-01-07T19:39:49.754Z,5.00
2018-01-07T19:42:31.495Z,4.90
2018-01-07T19:45:15.264Z,5.00
2018-01-07T19:50:43.631Z,4.80
2018-01-07T19:53:24.306Z,5.00
2018-01-07T19:56:04.590Z,4.90
2018-01-07T19:58:46.872Z,4.90
2018-01-07T20:01:29.318Z,4.90
2018-01-07T20:04:08.869Z,4.80
2018-01-07T20:06:50.676Z,4.90
2018-01-07T20:09:32.938Z,4.80
2018-01-07T20:12:15.778Z,4.80
2018-01-07T20:14:56.759Z,4.80
2018-01-07T20:17:39.639Z,4.80
2018-01-07T20:20:19.656Z,4.90
2018-01-07T20:23:03.307Z,5.00
2018-01-07T20:25:41.784Z,4.90
2018-01-07T20:30:55.515Z,4.90
2018-01-07T20:33:23.444Z,4.90
2018-01-07T20:35:50.945Z,4.80
2018-01-07T20:38:18.596Z,5.10
2018-01-07T20:40:45.958Z,5.00
2018-01-07T20:43:13.048Z,4.80
2018-01-07T20:45:40.984Z,4.90
2018-01-07T20:48:07.941Z,4.90
2018-01-07T20:50:35.009Z,5.00
2018-01-07T20:53:02.661Z,4.80
2018-01-07T20:55:30.081Z,4.80
2018-01-07T20:57:57.963Z,4.90
2018-01-07T21:00:25.317Z,4.80
2018-01-07T21:02:52.825Z,4.90
2018-01-07T21:05:20.368Z,4.80
2018-01-07T21:07:48.203Z,4.80
2018-01-07T21:10:16.999Z,4.80
2018-01-07T21:12:43.904Z,4.90
2018-01-07T21:15:10.758Z,4.80
2018-01-07T21:17:37.703Z,4.80
2018-01-07T21:20:04.763Z,5.00
2018-01-07T21:22:31.782Z,4.80
2018-01-07T21:24:58.674Z,5.00
2018-01-07T21:27:25.635Z,4.90
2018-01-07T21:29:52.491Z,5.10
2018-01-07T21:32:19.371Z,5.10
2018-01-07T21:34:46.319Z,5.20
2018-01-07T21:37:13.284Z,5.30
2018-01-07T21:39:40.172Z,5.30
2018-01-07T21:42:07.041Z,5.40
2018-01-07T21:44:34.716Z,5.40
2018-01-07T21:47:01.565Z,5.40
2018-01-07T21:49:28.491Z,5.60
2018-01-07T21:51:55.392Z,5.50
2018-01-07T21:54:22.262Z,5.40
2018-01-07T21:56:49.192Z,5.40
2018-01-07T21:59:16.121Z,5.50
2018-01-07T22:01:54.984Z,5.30
2018-01-07T22:04:33.947Z,5.30
2018-01-07T22:07:08.290Z,5.40
2018-01-07T22:09:35.496Z,5.20
2018-01-07T22:12:03.117Z,5.30
2018-01-07T22:14:30.055Z,5.30
2018-01-07T22:16:56.928Z,5.20
2018-01-07T22:19:23.803Z,5.20
2018-01-07T22:21:50.844Z,5.20
2018-01-07T22:24:18.526Z,5.20
2018-01-07T22:26:45.403Z,5.20
2018-01-07T22:29:12.350Z,5.40
2018-01-07T22:31:39.222Z,5.50
2018-01-07T22:34:06.097Z,5.50
2018-01-07T22:36:33.031Z,5.50
2018-01-07T22:39:04.729Z,5.40
2018-01-07T22:41:31.998Z,5.50
2018-01-07T22:43:58.870Z,5.00
2018-01-07T22:46:25.824Z,5.00
2018-01-07T22:48:53.432Z,5.10
2018-01-07T22:51:20.384Z,5.10
2018-01-07T22:53:47.240Z,5.10
2018-01-07T22:56:14.177Z,5.00
2018-01-07T22:58:41.103Z,5.20
2018-01-07T23:01:08.069Z,5.10
2018-01-07T23:03:34.917Z,5.00
2018-01-07T23:06:01.783Z,5.00
2018-01-07T23:08:28.715Z,5.10
2018-01-07T23:10:55.685Z,5.10
2018-01-07T23:13:25.380Z,5.20
2018-01-07T23:15:52.323Z,5.20
2018-01-07T23:18:19.256Z,5.30
2018-01-07T23:20:46.148Z,5.30
2018-01-07T23:23:13.884Z,5.10
2018-01-07T23:25:40.803Z,5.10
2018-01-07T23:28:07.732Z,5.10
2018-01-07T23:30:34.762Z,5.20
2018-01-07T23:33:02.379Z,5.10
2018-01-07T23:35:29.346Z,5.10
2018-01-07T23:37:56.270Z,5.30
2018-01-07T23:40:23.141Z,5.20
2018-01-07T23:42:50.074Z,5.10
2018-01-07T23:45:17.003Z,5.10
2018-01-07T23:47:43.966Z,5.20
2018-01-07T23:50:10.836Z,5.30
2018-01-07T23:52:37.734Z,5.30
2018-01-07T23:55:04.663Z,5.40
2018-01-07T23:57:31.527Z,5.30
2018-01-07T23:59:58.449Z,5.40
